Lockhart, AL (36455)

8:19 AM CDT on August 30, 2015 (GMT -0500)
Florala | | Change Station
CLOSE
Current Station
Airport
Location: Florala,
Elevation: 315 ft
Nearby Weather Stations

Elev 315 ft 31.04 °N, 86.31 °W | Updated 21 minutes ago

Overcast
Overcast
68 °F
Feels Like 68 °F
N
0
Wind Variable Wind from North

Today
High -- | Low -- °F
--% Chance of Precip.
Yesterday
High -- | Low -- °F
Precip. -- in
6:20 AM 7:11 PM
Full, 99% visible
Pressure 30.07 in
Visibility 3.0 miles
Clouds Overcast 200 ft
Dew Point 67 °F
Humidity 96%
Rainfall 0.00 in
Snow Depth Not available.
UV 1 out of 12
Pollen 7.50 out of 12
Air Quality Not available.
Flu Activity Not available.
METAR K0J4 301258Z AUTO 00000KT 3SM BR OVC002 20/19 A3008 RMK AO2 SLP181 T02000194
Pressure 30.07 in
Visibility 3.0 miles
Clouds Overcast 200 ft
Dew Point 67 °F
Humidity 96%
Rainfall 0.00 in
Snow Depth Not available.
UV 1 out of 12
Pollen 7.50 out of 12
Air Quality Not available.
Flu Activity Not available.
METAR K0J4 301258Z AUTO 00000KT 3SM BR OVC002 20/19 A3008 RMK AO2 SLP181 T02000194

10-Day Weather Forecast

×

Almanac

Astronomy

Aug. 30, 2015 Rise Set
Actual Time
Civil Twilight
Nautical Twilight
Astronomical Twilight
Moon
Length of Visible Light
Length of Day
Tomorrow will be .
, % of the Moon is Illuminated

Today's Extremes

State Highs State Lows

Community

WunderPhotos

Upload Photos

1,850,946 photos uploaded!

WunderBlogs® & News

Nearby

Air Quality

  Air Quality AQ Index Pollutant
Not available.

Snow Depth

Station Depth Elevation

Earthquake Activity

City Distance Mag. Time & Date
Minimum magnitude displayed is 2.5.

Coastal Water Temperatures

Place Temperature

Stations

Nearby Weather Stations

Station Location Temp. Windchill Dew Point Humidity Wind Precip. Elev Updated Type